createdAt,value
2024-02-13T00:02:51.133Z,16.00
2024-02-13T00:07:53.215Z,16.70
2024-02-13T00:12:54.840Z,17.90
2024-02-13T00:17:56.567Z,15.20
2024-02-13T00:23:00.617Z,13.40
2024-02-13T00:28:02.276Z,11.80
2024-02-13T00:33:06.618Z,10.70
2024-02-13T00:38:09.295Z,10.90
2024-02-13T00:43:11.046Z,12.40
2024-02-13T00:48:12.794Z,13.30
2024-02-13T00:53:17.176Z,12.20
2024-02-13T00:58:18.872Z,9.80
2024-02-13T01:03:24.089Z,10.90
2024-02-13T01:08:25.745Z,9.40
2024-02-13T01:13:27.537Z,7.80
2024-02-13T01:18:30.571Z,8.10
2024-02-13T01:23:34.194Z,8.50
2024-02-13T01:28:36.717Z,6.90
2024-02-13T01:33:38.600Z,5.10
2024-02-13T01:38:40.372Z,6.90
2024-02-13T01:43:42.184Z,6.40
2024-02-13T01:48:44.002Z,8.30
2024-02-13T01:53:46.515Z,6.50
2024-02-13T01:58:50.016Z,8.70
2024-02-13T02:03:54.102Z,7.80
2024-02-13T02:08:58.041Z,7.20
2024-02-13T02:19:04.314Z,4.50
2024-02-13T02:24:07.641Z,5.10
2024-02-13T02:29:09.942Z,4.60
2024-02-13T02:34:11.964Z,5.20
2024-02-13T02:39:13.740Z,3.50
2024-02-13T02:44:15.411Z,4.50
2024-02-13T02:49:20.348Z,6.20
2024-02-13T02:54:25.004Z,7.10
2024-02-13T02:59:28.056Z,6.10
2024-02-13T03:04:29.771Z,4.50
2024-02-13T03:09:31.494Z,5.20
2024-02-13T03:14:33.467Z,4.10
2024-02-13T03:19:35.509Z,5.60
2024-02-13T03:24:37.076Z,5.30
2024-02-13T03:29:38.740Z,4.40
2024-02-13T03:34:40.375Z,6.70
2024-02-13T03:39:44.723Z,7.40
2024-02-13T03:44:47.125Z,9.60
2024-02-13T03:49:49.009Z,5.10
2024-02-13T03:54:50.909Z,8.30
2024-02-13T03:59:53.182Z,4.40
2024-02-13T04:04:54.950Z,5.00
2024-02-13T04:09:56.531Z,3.50
2024-02-13T04:14:58.193Z,5.60
2024-02-13T04:19:59.821Z,4.40
2024-02-13T04:25:01.434Z,4.80
2024-02-13T04:30:04.139Z,3.80
2024-02-13T04:35:10.031Z,5.10
2024-02-13T04:40:14.542Z,4.00
2024-02-13T04:45:16.387Z,4.90
2024-02-13T04:50:21.223Z,7.70
2024-02-13T04:55:24.282Z,6.20
2024-02-13T05:00:27.588Z,4.10
2024-02-13T05:05:47.896Z,5.20
2024-02-13T05:10:49.773Z,7.30
2024-02-13T05:15:51.737Z,5.30
2024-02-13T05:20:53.303Z,6.80
2024-02-13T05:25:54.898Z,4.50
2024-02-13T05:30:57.228Z,5.90
2024-02-13T05:35:58.863Z,6.70
2024-02-13T05:41:00.467Z,5.90
2024-02-13T05:46:02.074Z,5.70
2024-02-13T05:51:06.770Z,6.50
2024-02-13T05:56:11.737Z,6.10
2024-02-13T06:01:15.071Z,6.50
2024-02-13T06:06:17.014Z,5.00
2024-02-13T06:11:18.758Z,5.10
2024-02-13T06:16:20.478Z,6.10
2024-02-13T06:21:24.511Z,5.30
2024-02-13T06:26:28.146Z,4.70
2024-02-13T06:31:33.850Z,6.10
2024-02-13T06:36:35.448Z,4.70
2024-02-13T06:41:37.819Z,5.10
2024-02-13T06:46:39.469Z,4.60
2024-02-13T06:51:41.029Z,4.70
2024-02-13T06:56:42.606Z,5.70
2024-02-13T07:01:44.317Z,5.60
2024-02-13T07:06:58.547Z,6.90
2024-02-13T07:17:10.497Z,5.90
2024-02-13T07:22:12.164Z,9.80
2024-02-13T07:27:13.737Z,11.10
2024-02-13T07:32:15.380Z,8.30
2024-02-13T07:37:16.996Z,9.70
2024-02-13T07:42:18.640Z,5.50
2024-02-13T07:47:22.854Z,8.40
2024-02-13T07:52:24.623Z,8.90
2024-02-13T07:57:26.218Z,5.50
2024-02-13T08:02:29.451Z,6.10
2024-02-13T08:07:31.178Z,6.90
2024-02-13T08:12:33.265Z,6.70
2024-02-13T08:17:34.937Z,8.30
2024-02-13T08:22:36.646Z,7.00
2024-02-13T08:27:38.760Z,10.50
2024-02-13T08:32:43.401Z,10.50
2024-02-13T08:37:45.305Z,10.10
2024-02-13T08:42:46.954Z,9.10
2024-02-13T08:47:48.611Z,14.20
2024-02-13T08:52:50.342Z,13.70
2024-02-13T08:57:52.915Z,13.60
2024-02-13T09:02:54.854Z,10.40
2024-02-13T09:07:56.576Z,12.40
2024-02-13T09:12:58.223Z,15.20
2024-02-13T09:18:00.511Z,14.80
2024-02-13T09:23:02.538Z,12.50
2024-02-13T09:28:04.292Z,15.90
2024-02-13T09:33:05.880Z,10.90
2024-02-13T09:38:08.086Z,10.80
2024-02-13T09:43:09.817Z,10.60
2024-02-13T09:48:21.539Z,12.00
2024-02-13T09:53:30.682Z,10.20
2024-02-13T09:58:33.501Z,9.50
2024-02-13T10:03:38.167Z,8.00
2024-02-13T10:08:41.471Z,11.10
2024-02-13T10:13:47.171Z,9.60
2024-02-13T10:18:59.003Z,9.40
2024-02-13T10:24:08.220Z,7.60
2024-02-13T10:29:10.562Z,9.80
2024-02-13T10:34:13.275Z,9.60
2024-02-13T10:39:23.629Z,11.50
2024-02-13T10:44:28.901Z,7.90
2024-02-13T10:49:45.059Z,13.50
2024-02-13T10:54:49.441Z,7.90
2024-02-13T10:59:52.532Z,12.00
2024-02-13T11:04:56.839Z,9.10
2024-02-13T11:09:58.662Z,9.10
2024-02-13T11:15:27.897Z,5.80
2024-02-13T11:20:29.840Z,7.40
2024-02-13T11:25:35.813Z,7.80
2024-02-13T11:30:39.547Z,9.70
2024-02-13T11:35:54.907Z,8.80
2024-02-13T11:40:56.712Z,9.60
2024-02-13T11:45:58.576Z,8.20
2024-02-13T11:51:00.501Z,8.70
2024-02-13T11:56:05.267Z,8.80
2024-02-13T12:01:07.265Z,9.40
2024-02-13T12:06:10.720Z,5.80
2024-02-13T12:11:13.103Z,9.80
2024-02-13T12:16:16.603Z,8.00
2024-02-13T12:21:18.180Z,8.20
2024-02-13T12:26:19.835Z,8.20
2024-02-13T12:31:23.055Z,9.70
2024-02-13T12:36:25.639Z,8.70
2024-02-13T12:41:27.276Z,9.30
2024-02-13T12:46:36.171Z,9.00
2024-02-13T12:51:40.652Z,8.50
2024-02-13T12:56:42.696Z,6.90
2024-02-13T13:01:49.078Z,8.00
2024-02-13T13:06:52.604Z,9.50
2024-02-13T13:16:58.022Z,9.20
2024-02-13T13:22:01.368Z,6.10
2024-02-13T13:27:05.207Z,5.00
2024-02-13T13:32:07.358Z,7.20
2024-02-13T13:37:09.037Z,8.90
2024-02-13T13:42:11.165Z,4.40
2024-02-13T13:47:12.895Z,6.60
2024-02-13T13:52:14.550Z,9.20
2024-02-13T13:57:16.580Z,8.20
2024-02-13T14:02:18.304Z,7.50
2024-02-13T14:07:21.130Z,6.00
2024-02-13T14:12:22.965Z,5.80
2024-02-13T14:17:24.993Z,6.50
2024-02-13T14:22:28.160Z,3.40
2024-02-13T14:27:29.734Z,5.10
2024-02-13T14:32:31.426Z,5.00
2024-02-13T14:37:33.060Z,5.70
2024-02-13T14:42:34.892Z,4.60
2024-02-13T14:47:40.320Z,4.40
2024-02-13T14:52:43.106Z,7.50
2024-02-13T14:57:52.333Z,4.70
2024-02-13T15:03:02.308Z,4.80
2024-02-13T15:08:04.459Z,4.50
2024-02-13T15:13:08.030Z,3.70
2024-02-13T15:18:09.899Z,5.10
2024-02-13T15:23:14.275Z,4.40
2024-02-13T15:28:17.018Z,4.10
2024-02-13T15:33:22.843Z,6.90
2024-02-13T15:38:43.567Z,8.00
2024-02-13T15:44:03.959Z,6.40
2024-02-13T15:49:06.593Z,3.00
2024-02-13T15:54:10.103Z,2.80
2024-02-13T15:59:11.805Z,3.10
2024-02-13T16:04:13.507Z,4.90
2024-02-13T16:09:15.115Z,4.20
2024-02-13T16:14:18.043Z,3.10
2024-02-13T16:19:19.745Z,3.40
2024-02-13T16:24:21.358Z,6.70
2024-02-13T16:29:24.963Z,4.00
2024-02-13T16:34:31.820Z,4.50
2024-02-13T16:39:38.135Z,6.20
2024-02-13T16:44:40.302Z,4.00
2024-02-13T16:49:42.342Z,5.90
2024-02-13T16:54:44.006Z,4.50
2024-02-13T16:59:45.685Z,3.40
2024-02-13T17:04:47.335Z,3.40
2024-02-13T17:09:50.574Z,5.00
2024-02-13T17:14:52.161Z,3.50
2024-02-13T17:19:55.233Z,4.30
2024-02-13T17:24:56.960Z,4.50
2024-02-13T17:29:59.365Z,8.70
2024-02-13T17:35:01.226Z,5.20
2024-02-13T17:40:04.502Z,3.90
2024-02-13T17:45:07.292Z,6.50
2024-02-13T17:50:10.559Z,5.30
2024-02-13T17:55:17.629Z,6.00
2024-02-13T18:00:24.555Z,7.70
2024-02-13T18:05:26.369Z,7.30
2024-02-13T18:10:27.963Z,7.90
2024-02-13T18:15:29.580Z,8.20
2024-02-13T18:20:32.923Z,6.20
2024-02-13T18:25:38.006Z,6.40
2024-02-13T18:30:40.334Z,9.40
2024-02-13T18:35:44.802Z,6.00
2024-02-13T18:40:46.639Z,9.30
2024-02-13T18:45:49.470Z,5.10
2024-02-13T18:50:51.220Z,7.80
2024-02-13T18:55:53.179Z,5.80
2024-02-13T19:00:54.897Z,7.80
2024-02-13T19:05:57.391Z,10.40
2024-02-13T19:11:00.039Z,10.90
2024-02-13T19:16:01.685Z,8.50
2024-02-13T19:21:03.381Z,11.10
2024-02-13T19:26:05.395Z,12.40
2024-02-13T19:31:10.117Z,12.80
2024-02-13T19:36:11.802Z,13.80
2024-02-13T19:41:14.343Z,14.80
2024-02-13T19:46:15.925Z,12.00
2024-02-13T19:51:17.959Z,9.80
2024-02-13T19:56:19.644Z,12.00
2024-02-13T20:01:22.829Z,8.60
2024-02-13T20:06:24.715Z,8.40
2024-02-13T20:11:28.433Z,7.00
2024-02-13T20:16:31.551Z,8.20
2024-02-13T20:21:33.697Z,14.90
2024-02-13T20:26:38.811Z,17.80
2024-02-13T20:31:40.441Z,7.80
2024-02-13T20:36:42.462Z,12.30
2024-02-13T20:41:44.148Z,19.20
2024-02-13T20:46:45.745Z,19.20
2024-02-13T20:51:47.283Z,16.00
2024-02-13T20:56:49.969Z,16.10
2024-02-13T21:01:52.611Z,12.70
2024-02-13T21:06:55.550Z,20.20
2024-02-13T21:11:57.170Z,16.50
2024-02-13T21:16:58.847Z,14.20
2024-02-13T21:22:19.038Z,14.80
2024-02-13T21:27:21.424Z,11.50
2024-02-13T21:32:23.157Z,10.20
2024-02-13T21:37:24.700Z,12.50
2024-02-13T21:42:26.386Z,13.30
2024-02-13T21:47:28.264Z,16.40
2024-02-13T21:52:30.204Z,11.90
2024-02-13T21:57:32.072Z,9.10
2024-02-13T22:02:34.789Z,12.40
2024-02-13T22:07:38.908Z,12.00
2024-02-13T22:12:42.964Z,12.10
2024-02-13T22:17:46.179Z,13.20
2024-02-13T22:22:47.834Z,11.30
2024-02-13T22:27:49.361Z,12.20
2024-02-13T22:32:52.811Z,16.00
2024-02-13T22:37:55.064Z,10.50
2024-02-13T22:42:56.654Z,10.10
2024-02-13T22:48:03.213Z,12.30
2024-02-13T22:53:05.145Z,14.50
2024-02-13T22:58:07.091Z,10.80
2024-02-13T23:03:09.364Z,13.00
2024-02-13T23:08:11.137Z,10.90
2024-02-13T23:13:14.099Z,10.20
2024-02-13T23:18:16.283Z,12.20
2024-02-13T23:23:18.396Z,8.90
2024-02-13T23:28:20.149Z,15.70
2024-02-13T23:33:21.883Z,11.70
2024-02-13T23:38:23.747Z,12.10
2024-02-13T23:43:26.017Z,13.10
2024-02-13T23:48:27.698Z,13.50
2024-02-13T23:53:29.804Z,10.90
2024-02-13T23:58:33.519Z,10.90
